createdAt,value
2019-06-07T00:02:02.351Z,43.77
2019-06-07T00:04:33.960Z,43.86
2019-06-07T00:07:04.336Z,43.93
2019-06-07T00:09:34.930Z,44.00
2019-06-07T00:12:09.076Z,44.09
2019-06-07T00:14:37.902Z,44.16
2019-06-07T00:17:10.501Z,44.26
2019-06-07T00:19:40.577Z,44.32
2019-06-07T00:22:23.650Z,44.41
2019-06-07T00:24:44.732Z,44.51
2019-06-07T00:27:15.214Z,44.57
2019-06-07T00:29:46.126Z,44.66
2019-06-07T00:32:20.031Z,44.74
2019-06-07T00:34:48.792Z,44.81
2019-06-07T00:37:20.710Z,44.92
2019-06-07T00:40:12.645Z,45.00
2019-06-07T00:42:24.088Z,45.10
2019-06-07T00:44:55.148Z,45.18
2019-06-07T00:47:28.471Z,45.26
2019-06-07T00:49:59.212Z,45.34
2019-06-07T00:55:01.668Z,45.48
2019-06-07T00:57:31.998Z,45.57
2019-06-07T01:00:04.013Z,45.65
2019-06-07T01:02:34.329Z,45.73
2019-06-07T01:05:05.113Z,45.81
2019-06-07T01:07:35.414Z,45.89
2019-06-07T01:10:10.204Z,45.97
2019-06-07T01:12:40.498Z,46.05
2019-06-07T01:15:11.412Z,46.12
2019-06-07T01:18:11.894Z,46.19
2019-06-07T01:20:16.547Z,46.28
2019-06-07T01:22:46.804Z,46.36
2019-06-07T01:25:18.361Z,46.44
2019-06-07T01:27:49.067Z,46.52
2019-06-07T01:30:24.249Z,46.60
2019-06-07T01:32:52.742Z,46.70
2019-06-07T01:35:23.896Z,46.76
2019-06-07T01:37:57.371Z,46.84
2019-06-07T01:40:32.402Z,46.92
2019-06-07T01:42:59.983Z,47.02
2019-06-07T01:45:31.176Z,47.10
2019-06-07T01:48:01.584Z,47.18
2019-06-07T01:50:32.327Z,47.27
2019-06-07T01:53:02.685Z,47.35
2019-06-07T01:55:33.108Z,47.43
2019-06-07T01:58:03.887Z,47.49
2019-06-07T02:00:34.308Z,47.58
2019-06-07T02:03:04.793Z,47.68
2019-06-07T02:05:35.209Z,47.76
2019-06-07T02:08:05.552Z,47.84
2019-06-07T02:10:35.868Z,47.92
2019-06-07T02:13:06.259Z,48.00
2019-06-07T02:15:36.974Z,48.08
2019-06-07T02:18:07.292Z,48.15
2019-06-07T02:20:37.964Z,48.23
2019-06-07T02:23:08.301Z,48.30
2019-06-07T02:25:49.577Z,48.38
2019-06-07T02:28:27.670Z,48.45
2019-06-07T02:30:53.257Z,48.54
2019-06-07T02:33:14.636Z,48.61
2019-06-07T02:35:45.267Z,48.71
2019-06-07T02:38:15.878Z,48.76
2019-06-07T02:40:46.656Z,48.85
2019-06-07T02:43:17.429Z,48.94
2019-06-07T02:45:47.990Z,49.04
2019-06-07T02:48:18.383Z,49.14
2019-06-07T02:50:49.527Z,49.24
2019-06-07T02:53:21.068Z,49.33
2019-06-07T02:56:35.372Z,49.44
2019-06-07T02:58:26.012Z,49.55
2019-06-07T03:01:07.511Z,49.63
2019-06-07T03:03:30.430Z,49.74
2019-06-07T03:06:02.868Z,49.83
2019-06-07T03:08:36.592Z,49.92
2019-06-07T03:11:07.477Z,50.02
2019-06-07T03:13:41.554Z,50.12
2019-06-07T03:16:14.752Z,50.20
2019-06-07T03:18:55.313Z,50.32
2019-06-07T03:21:29.532Z,50.43
2019-06-07T03:24:00.712Z,50.52
2019-06-07T03:26:35.108Z,50.63
2019-06-07T03:29:03.604Z,50.72
2019-06-07T03:31:41.511Z,50.80
2019-06-07T03:34:06.004Z,50.90
2019-06-07T03:36:39.197Z,51.00
2019-06-07T03:39:08.579Z,51.10
2019-06-07T03:41:49.979Z,51.21
2019-06-07T03:44:10.934Z,51.29
2019-06-07T03:46:41.903Z,51.41
2019-06-07T03:49:12.283Z,51.46
2019-06-07T03:51:44.952Z,51.55
2019-06-07T03:54:16.415Z,51.64
2019-06-07T03:56:46.720Z,51.72
2019-06-07T03:59:17.369Z,51.79
2019-06-07T04:01:47.874Z,51.86
2019-06-07T04:04:18.205Z,51.93
2019-06-07T04:06:48.551Z,52.04
2019-06-07T04:09:19.370Z,52.13
2019-06-07T04:11:52.003Z,52.22
2019-06-07T04:14:23.411Z,52.33
2019-06-07T04:16:53.950Z,52.43
2019-06-07T04:19:25.327Z,52.52
2019-06-07T04:21:55.666Z,52.62
2019-06-07T04:24:25.968Z,52.69
2019-06-07T04:26:56.288Z,52.76
2019-06-07T04:29:59.764Z,52.83
2019-06-07T04:31:58.677Z,52.95
2019-06-07T04:34:29.925Z,53.03
2019-06-07T04:37:01.766Z,53.11
2019-06-07T04:39:36.456Z,53.21
2019-06-07T04:42:05.743Z,53.28
2019-06-07T04:44:41.079Z,53.37
2019-06-07T04:47:11.917Z,53.44
2019-06-07T04:49:46.039Z,53.50
2019-06-07T04:52:16.246Z,53.55
2019-06-07T04:54:46.555Z,53.60
2019-06-07T04:57:16.935Z,53.65
2019-06-07T05:00:11.917Z,53.74
2019-06-07T05:02:19.571Z,53.79
2019-06-07T05:04:49.918Z,53.86
2019-06-07T05:07:20.542Z,53.93
2019-06-07T05:09:50.855Z,54.03
2019-06-07T05:12:21.588Z,54.08
2019-06-07T05:14:52.208Z,54.16
2019-06-07T05:17:23.363Z,54.23
2019-06-07T05:19:53.589Z,54.31
2019-06-07T05:22:23.902Z,54.37
2019-06-07T05:24:55.177Z,54.45
2019-06-07T05:27:25.452Z,54.53
2019-06-07T05:30:09.623Z,54.65
2019-06-07T05:32:27.906Z,54.73
2019-06-07T05:34:58.306Z,54.82
2019-06-07T05:37:33.444Z,54.86
2019-06-07T05:40:03.919Z,54.88
2019-06-07T05:42:37.251Z,54.92
2019-06-07T05:45:07.517Z,54.96
2019-06-07T05:47:43.734Z,54.99
2019-06-07T05:50:38.022Z,55.05
2019-06-07T05:52:47.274Z,55.09
2019-06-07T05:55:14.771Z,55.14
2019-06-07T05:57:49.121Z,55.19
2019-06-07T06:00:17.100Z,55.23
2019-06-07T06:03:03.986Z,55.26
2019-06-07T06:05:33.178Z,55.29
2019-06-07T06:07:53.243Z,55.33
2019-06-07T06:10:24.237Z,55.38
2019-06-07T06:12:54.718Z,55.42
2019-06-07T06:15:42.329Z,55.44
2019-06-07T06:18:00.951Z,55.50
2019-06-07T06:20:34.782Z,55.54
2019-06-07T06:23:03.229Z,55.58
2019-06-07T06:25:34.353Z,55.62
2019-06-07T06:28:12.109Z,55.64
2019-06-07T06:30:41.219Z,55.67
2019-06-07T06:33:30.595Z,55.72
2019-06-07T06:35:46.057Z,55.74
2019-06-07T06:38:15.710Z,55.76
2019-06-07T06:40:49.646Z,55.82
2019-06-07T06:43:18.783Z,55.83
2019-06-07T06:45:50.675Z,55.89
2019-06-07T06:48:21.064Z,55.92
2019-06-07T06:50:52.889Z,55.93
2019-06-07T06:53:25.294Z,55.96
2019-06-07T06:55:55.632Z,56.02
2019-06-07T06:58:25.933Z,56.06
2019-06-07T07:01:05.885Z,56.07
2019-06-07T07:03:56.674Z,56.10
2019-06-07T07:06:24.641Z,56.13
2019-06-07T07:08:33.102Z,56.15
2019-06-07T07:11:04.438Z,56.22
2019-06-07T07:13:34.805Z,56.22
2019-06-07T07:16:05.239Z,56.25
2019-06-07T07:18:35.512Z,56.26
2019-06-07T07:21:07.533Z,56.34
2019-06-07T07:23:37.952Z,56.34
2019-06-07T07:26:08.571Z,56.31
2019-06-07T07:28:39.020Z,56.29
2019-06-07T07:31:09.952Z,56.29
2019-06-07T07:36:28.697Z,56.29
2019-06-07T07:38:51.728Z,56.41
2019-06-07T07:41:19.899Z,56.47
2019-06-07T07:43:59.372Z,56.46
2019-06-07T07:46:29.496Z,56.48
2019-06-07T07:49:00.303Z,56.39
2019-06-07T07:51:31.722Z,56.37
2019-06-07T07:54:10.846Z,56.35
2019-06-07T07:56:34.170Z,56.31
2019-06-07T07:59:05.008Z,56.26
2019-06-07T08:01:36.588Z,56.24
2019-06-07T08:04:07.227Z,56.18
2019-06-07T08:06:37.554Z,56.14
2019-06-07T08:09:08.868Z,56.12
2019-06-07T08:11:39.181Z,56.09
2019-06-07T08:14:11.036Z,56.01
2019-06-07T08:16:41.486Z,55.97
2019-06-07T08:19:14.144Z,55.90
2019-06-07T08:21:44.541Z,55.87
2019-06-07T08:24:16.319Z,55.85
2019-06-07T08:27:12.311Z,55.77
2019-06-07T08:29:18.790Z,55.73
2019-06-07T08:31:51.667Z,55.68
2019-06-07T08:34:21.491Z,55.64
2019-06-07T08:36:54.297Z,55.59
2019-06-07T08:39:24.251Z,55.56
2019-06-07T08:42:14.351Z,55.49
2019-06-07T08:44:28.828Z,55.43
2019-06-07T08:47:18.408Z,55.43
2019-06-07T08:49:31.130Z,55.37
2019-06-07T08:52:10.522Z,55.35
2019-06-07T08:54:34.558Z,55.27
2019-06-07T08:57:20.542Z,55.21
2019-06-07T08:59:39.581Z,55.21
2019-06-07T09:02:23.247Z,55.15
2019-06-07T09:04:45.631Z,55.09
2019-06-07T09:07:20.042Z,55.05
2019-06-07T09:09:48.248Z,54.97
2019-06-07T09:12:18.929Z,54.82
2019-06-07T09:15:06.781Z,54.82
2019-06-07T09:17:23.619Z,54.80
2019-06-07T09:19:59.039Z,54.72
2019-06-07T09:22:29.162Z,54.71
2019-06-07T09:25:05.936Z,54.75
2019-06-07T09:27:31.896Z,54.69
2019-06-07T09:30:07.625Z,54.64
2019-06-07T09:32:34.335Z,54.56
2019-06-07T09:35:12.430Z,54.49
2019-06-07T09:38:04.497Z,54.42
2019-06-07T09:40:21.626Z,54.36
2019-06-07T09:42:42.553Z,54.25
2019-06-07T09:45:14.329Z,54.09
2019-06-07T09:47:45.486Z,54.05
2019-06-07T09:50:16.317Z,53.99
2019-06-07T09:52:58.094Z,53.97
2019-06-07T09:55:24.195Z,53.90
2019-06-07T09:57:51.430Z,53.47
2019-06-07T10:00:39.893Z,53.47
2019-06-07T10:02:54.241Z,53.39
2019-06-07T10:05:24.799Z,53.44
2019-06-07T10:08:07.654Z,53.26
2019-06-07T10:12:59.631Z,53.17
2019-06-07T10:15:36.974Z,53.19
2019-06-07T10:18:09.186Z,52.95
2019-06-07T10:20:45.886Z,52.83
2019-06-07T10:23:16.339Z,52.45
2019-06-07T10:25:46.657Z,52.38
2019-06-07T10:28:16.983Z,52.25
2019-06-07T10:30:47.658Z,52.14
2019-06-07T10:33:24.810Z,51.96
2019-06-07T10:35:55.427Z,51.79
2019-06-07T10:38:26.830Z,51.64
2019-06-07T10:40:57.364Z,51.57
2019-06-07T10:43:29.156Z,51.26
2019-06-07T10:46:01.458Z,51.03
2019-06-07T10:48:32.166Z,50.75
2019-06-07T10:51:04.332Z,50.68
2019-06-07T10:53:34.568Z,50.44
2019-06-07T10:56:07.104Z,50.13
2019-06-07T10:58:37.443Z,49.91
2019-06-07T11:01:09.361Z,49.71
2019-06-07T11:03:41.561Z,49.57
2019-06-07T11:06:12.277Z,49.23
2019-06-07T11:08:45.598Z,49.34
2019-06-07T11:11:21.487Z,48.93
2019-06-07T11:13:52.635Z,48.61
2019-06-07T11:16:23.683Z,48.39
2019-06-07T11:18:54.763Z,48.13
2019-06-07T11:21:25.105Z,47.81
2019-06-07T11:23:56.963Z,47.70
2019-06-07T11:26:27.700Z,47.66
2019-06-07T11:28:58.448Z,47.40
2019-06-07T11:31:28.861Z,47.35
2019-06-07T11:33:59.629Z,47.18
2019-06-07T11:36:30.020Z,46.96
2019-06-07T11:39:00.363Z,46.69
2019-06-07T11:41:30.708Z,46.45
2019-06-07T11:44:06.788Z,46.23
2019-06-07T11:46:39.454Z,45.95
2019-06-07T11:49:10.897Z,45.80
2019-06-07T11:51:42.051Z,45.60
2019-06-07T11:54:14.235Z,45.45
2019-06-07T11:56:46.572Z,45.36
2019-06-07T11:59:17.451Z,45.24
2019-06-07T12:01:47.974Z,45.23
2019-06-07T12:04:32.519Z,45.00
2019-06-07T12:06:50.273Z,44.84
2019-06-07T12:09:21.124Z,44.86
2019-06-07T12:11:54.168Z,44.66
2019-06-07T12:14:42.187Z,44.46
2019-06-07T12:17:17.536Z,44.23
2019-06-07T12:19:59.072Z,44.33
2019-06-07T12:23:05.832Z,44.14
2019-06-07T12:25:47.182Z,43.87
2019-06-07T12:28:21.046Z,43.78
2019-06-07T12:30:54.984Z,43.62
2019-06-07T12:33:26.685Z,43.59
2019-06-07T12:36:01.282Z,43.39
2019-06-07T12:38:32.458Z,43.42
2019-06-07T12:41:05.120Z,43.24
2019-06-07T12:43:35.721Z,43.22
2019-06-07T12:46:06.064Z,43.17
2019-06-07T12:48:36.793Z,43.03
2019-06-07T12:51:13.063Z,42.93
2019-06-07T12:53:44.024Z,42.79
2019-06-07T12:56:17.777Z,42.76
2019-06-07T12:58:50.801Z,42.58
2019-06-07T13:01:24.879Z,42.61
2019-06-07T13:04:07.415Z,42.48
2019-06-07T13:06:37.807Z,42.32
2019-06-07T13:09:08.081Z,42.22
2019-06-07T13:11:40.454Z,42.11
2019-06-07T13:14:10.809Z,42.02
2019-06-07T13:16:42.624Z,41.94
2019-06-07T13:19:18.039Z,41.79
2019-06-07T13:21:51.017Z,41.77
2019-06-07T13:24:25.148Z,41.69
2019-06-07T13:26:56.765Z,41.52
2019-06-07T13:29:32.181Z,41.47
2019-06-07T13:32:02.374Z,41.34
2019-06-07T13:34:34.087Z,41.26
2019-06-07T13:37:04.500Z,41.15
2019-06-07T13:39:38.117Z,41.08
2019-06-07T13:42:09.673Z,40.96
2019-06-07T13:44:40.014Z,40.85
2019-06-07T13:47:10.632Z,40.82
2019-06-07T13:49:42.613Z,40.74
2019-06-07T13:52:13.493Z,40.70
2019-06-07T13:54:44.178Z,40.59
2019-06-07T13:57:17.936Z,40.46
2019-06-07T13:59:50.390Z,40.39
2019-06-07T14:02:21.236Z,40.34
2019-06-07T14:04:54.167Z,40.29
2019-06-07T14:07:26.885Z,40.20
2019-06-07T14:09:57.966Z,40.10
2019-06-07T14:12:29.587Z,40.01
2019-06-07T14:15:00.110Z,39.98
2019-06-07T14:17:32.547Z,39.87
2019-06-07T14:20:03.380Z,39.80
2019-06-07T14:22:34.792Z,39.76
2019-06-07T14:25:05.656Z,39.69
2019-06-07T14:27:39.767Z,39.58
2019-06-07T14:30:10.965Z,39.53
2019-06-07T14:32:44.748Z,39.50
2019-06-07T14:35:15.106Z,39.43
2019-06-07T14:37:45.465Z,39.40
2019-06-07T14:40:16.628Z,39.32
2019-06-07T14:42:47.084Z,39.23
2019-06-07T14:45:18.330Z,39.23
2019-06-07T14:47:52.788Z,39.18
2019-06-07T14:50:24.182Z,39.07
2019-06-07T14:52:54.598Z,39.00
2019-06-07T14:55:26.960Z,38.96
2019-06-07T14:57:58.966Z,38.89
2019-06-07T15:00:48.030Z,38.82
2019-06-07T15:03:19.187Z,38.82
2019-06-07T15:05:49.868Z,38.77
2019-06-07T15:10:48.726Z,38.70
2019-06-07T15:13:20.718Z,38.64
2019-06-07T15:15:51.003Z,38.63
2019-06-07T15:18:21.335Z,38.56
2019-06-07T15:20:51.815Z,38.54
2019-06-07T15:23:24.212Z,38.51
2019-06-07T15:25:54.559Z,38.48
2019-06-07T15:28:24.946Z,38.47
2019-06-07T15:30:55.742Z,38.44
2019-06-07T15:33:27.886Z,38.47
2019-06-07T15:35:59.235Z,38.42
2019-06-07T15:38:31.127Z,38.43
2019-06-07T15:41:01.859Z,38.41
2019-06-07T15:43:33.167Z,38.37
2019-06-07T15:46:03.531Z,38.37
2019-06-07T15:48:38.136Z,38.45
2019-06-07T15:51:08.676Z,38.43
2019-06-07T15:53:44.629Z,38.37
2019-06-07T15:56:15.550Z,38.39
2019-06-07T15:58:46.840Z,38.39
2019-06-07T16:01:18.616Z,38.34
2019-06-07T16:03:49.499Z,38.37
2019-06-07T16:06:19.963Z,38.35
2019-06-07T16:08:53.412Z,38.31
2019-06-07T16:11:26.132Z,38.32
2019-06-07T16:13:56.463Z,38.32
2019-06-07T16:16:31.229Z,38.32
2019-06-07T16:19:01.602Z,38.33
2019-06-07T16:21:33.191Z,38.30
2019-06-07T16:24:03.649Z,38.31
2019-06-07T16:26:38.131Z,38.30
2019-06-07T16:29:09.254Z,38.29
2019-06-07T16:31:40.894Z,38.31
2019-06-07T16:34:11.358Z,38.30
2019-06-07T16:36:42.323Z,38.28
2019-06-07T16:39:16.461Z,38.26
2019-06-07T16:41:46.744Z,38.25
2019-06-07T16:44:18.178Z,38.26
2019-06-07T16:46:49.096Z,38.27
2019-06-07T16:49:19.493Z,38.30
2019-06-07T16:51:51.900Z,38.32
2019-06-07T16:54:26.512Z,38.32
2019-06-07T16:56:56.916Z,38.29
2019-06-07T16:59:27.325Z,38.30
2019-06-07T17:01:57.642Z,38.30
2019-06-07T17:04:29.220Z,38.27
2019-06-07T17:06:59.519Z,38.29
2019-06-07T17:09:30.486Z,38.29
2019-06-07T17:12:00.836Z,38.31
2019-06-07T17:14:31.171Z,38.34
2019-06-07T17:17:04.002Z,38.34
2019-06-07T17:19:34.435Z,38.36
2019-06-07T17:22:05.033Z,38.39
2019-06-07T17:24:36.062Z,38.39
2019-06-07T17:27:06.758Z,38.42
2019-06-07T17:29:37.196Z,38.48
2019-06-07T17:32:08.998Z,38.51
2019-06-07T17:34:39.901Z,38.54
2019-06-07T17:37:10.659Z,38.58
2019-06-07T17:39:43.105Z,38.61
2019-06-07T17:42:15.883Z,38.64
2019-06-07T17:44:47.120Z,38.69
2019-06-07T17:47:17.475Z,38.74
2019-06-07T17:49:47.945Z,38.78
2019-06-07T17:52:52.175Z,38.84
2019-06-07T17:55:23.830Z,38.86
2019-06-07T17:57:54.185Z,38.93
2019-06-07T18:00:28.808Z,38.99
2019-06-07T18:02:58.786Z,39.04
2019-06-07T18:05:29.078Z,39.07
2019-06-07T18:07:59.962Z,39.13
2019-06-07T18:10:40.119Z,39.18
2019-06-07T18:13:10.867Z,39.20
2019-06-07T18:15:44.350Z,39.26
2019-06-07T18:18:15.256Z,39.34
2019-06-07T18:20:47.210Z,39.38
2019-06-07T18:23:17.856Z,39.45
2019-06-07T18:25:48.456Z,39.50
2019-06-07T18:28:18.963Z,39.57
2019-06-07T18:30:50.764Z,39.62
2019-06-07T18:33:25.074Z,39.68
2019-06-07T18:36:05.688Z,39.74
2019-06-07T18:38:36.466Z,39.80
2019-06-07T18:41:06.789Z,39.85
2019-06-07T18:43:37.101Z,39.92
2019-06-07T18:46:07.658Z,39.98
2019-06-07T18:48:38.031Z,40.04
2019-06-07T18:51:08.729Z,40.10
2019-06-07T18:53:40.347Z,40.16
2019-06-07T18:56:10.734Z,40.25
2019-06-07T18:58:41.059Z,40.30
2019-06-07T19:01:11.393Z,40.38
2019-06-07T19:03:41.713Z,40.44
2019-06-07T19:06:12.247Z,40.48
2019-06-07T19:08:42.564Z,40.58
2019-06-07T19:11:13.115Z,40.65
2019-06-07T19:13:43.472Z,40.72
2019-06-07T19:16:15.074Z,40.80
2019-06-07T19:18:45.437Z,40.85
2019-06-07T19:21:15.853Z,40.91
2019-06-07T19:23:46.386Z,40.95
2019-06-07T19:26:17.683Z,41.03
2019-06-07T19:28:49.139Z,41.11
2019-06-07T19:31:19.433Z,41.17
2019-06-07T19:33:50.927Z,41.26
2019-06-07T19:36:21.895Z,41.32
2019-06-07T19:38:54.261Z,41.39
2019-06-07T19:41:24.444Z,41.44
2019-06-07T19:43:56.172Z,41.50
2019-06-07T19:46:28.606Z,41.59
2019-06-07T19:48:59.076Z,41.64
2019-06-07T19:51:29.384Z,41.74
2019-06-07T19:54:01.779Z,41.80
2019-06-07T19:56:32.706Z,41.88
2019-06-07T19:59:04.308Z,41.95
2019-06-07T20:01:35.107Z,42.02
2019-06-07T20:04:05.466Z,42.09
2019-06-07T20:06:35.820Z,42.17
2019-06-07T20:09:07.424Z,42.26
2019-06-07T20:11:38.193Z,42.30
2019-06-07T20:14:08.500Z,42.39
2019-06-07T20:16:38.935Z,42.47
2019-06-07T20:19:09.924Z,42.55
2019-06-07T20:21:40.225Z,42.63
2019-06-07T20:24:26.356Z,42.70
2019-06-07T20:26:43.874Z,42.79
2019-06-07T20:29:25.808Z,42.87
2019-06-07T20:31:47.026Z,42.95
2019-06-07T20:34:17.406Z,43.02
2019-06-07T20:36:48.095Z,43.10
2019-06-07T20:39:18.856Z,43.16
2019-06-07T20:41:53.814Z,43.24
2019-06-07T20:44:24.504Z,43.33
2019-06-07T20:46:54.869Z,43.41
2019-06-07T20:49:31.789Z,43.49
2019-06-07T20:52:04.852Z,43.57
2019-06-07T20:54:35.733Z,43.66
2019-06-07T20:57:06.772Z,43.73
2019-06-07T20:59:37.348Z,43.80
2019-06-07T21:02:09.563Z,43.88
2019-06-07T21:07:10.147Z,44.05
2019-06-07T21:09:43.758Z,44.12
2019-06-07T21:12:14.040Z,44.18
2019-06-07T21:14:45.983Z,44.28
2019-06-07T21:17:16.305Z,44.36
2019-06-07T21:19:46.611Z,44.43
2019-06-07T21:22:17.431Z,44.53
2019-06-07T21:24:48.146Z,44.61
2019-06-07T21:27:18.473Z,44.69
2019-06-07T21:29:53.895Z,44.77
2019-06-07T21:32:26.016Z,44.86
2019-06-07T21:34:56.493Z,44.94
2019-06-07T21:37:27.103Z,45.02
2019-06-07T21:39:57.660Z,45.13
2019-06-07T21:42:28.320Z,45.20
2019-06-07T21:45:00.587Z,45.29
2019-06-07T21:47:31.964Z,45.36
2019-06-07T21:50:02.628Z,45.47
2019-06-07T21:52:33.139Z,45.55
2019-06-07T21:55:04.618Z,45.62
2019-06-07T21:57:35.431Z,45.69
2019-06-07T22:00:11.713Z,45.78
2019-06-07T22:02:42.158Z,45.85
2019-06-07T22:05:13.882Z,45.95
2019-06-07T22:07:44.872Z,46.02
2019-06-07T22:10:16.230Z,46.12
2019-06-07T22:12:46.546Z,46.21
2019-06-07T22:15:33.160Z,46.27
2019-06-07T22:17:50.540Z,46.37
2019-06-07T22:20:21.515Z,46.43
2019-06-07T22:22:51.875Z,46.52
2019-06-07T22:25:22.822Z,46.62
2019-06-07T22:27:56.234Z,46.67
2019-06-07T22:30:28.025Z,46.79
2019-06-07T22:32:58.351Z,46.85
2019-06-07T22:35:31.165Z,46.95
2019-06-07T22:38:01.469Z,47.03
2019-06-07T22:40:33.314Z,47.10
2019-06-07T22:43:07.508Z,47.19
2019-06-07T22:45:40.671Z,47.27
2019-06-07T22:48:11.348Z,47.35
2019-06-07T22:50:42.030Z,47.43
2019-06-07T22:53:14.069Z,47.51
2019-06-07T22:55:49.763Z,47.59
2019-06-07T22:58:23.129Z,47.69
2019-06-07T23:00:53.430Z,47.76
2019-06-07T23:03:29.099Z,47.85
2019-06-07T23:05:59.461Z,47.94
2019-06-07T23:08:31.871Z,48.04
2019-06-07T23:11:07.339Z,48.13
2019-06-07T23:13:38.042Z,48.21
2019-06-07T23:16:11.410Z,48.28
2019-06-07T23:18:43.034Z,48.38
2019-06-07T23:21:13.849Z,48.45
2019-06-07T23:23:47.072Z,48.52
2019-06-07T23:26:20.554Z,48.62
2019-06-07T23:28:55.608Z,48.71
2019-06-07T23:31:27.267Z,48.79
2019-06-07T23:34:00.193Z,48.88
2019-06-07T23:36:30.801Z,48.98
2019-06-07T23:39:01.335Z,49.06
2019-06-07T23:41:31.674Z,49.14
2019-06-07T23:44:02.349Z,49.20
2019-06-07T23:46:32.688Z,49.30
2019-06-07T23:49:03.096Z,49.36
2019-06-07T23:51:33.591Z,49.46
2019-06-07T23:54:03.972Z,49.53
2019-06-07T23:56:34.340Z,49.61
2019-06-07T23:59:05.185Z,49.69
